Airfield :
LOGIN :

Register | Disclaimer

   EN    FR    IT 

 










Legend :    VFR   Marginal VFR   IFR   Intensive IFR   Very Intensive IFR
Visi :
Ceiling :
>= 8 km
>= 3000ft
5 to 8 km
1000 to 3000 ft
1500m to 5 km
500 to 1000 ft
800 to 1500m
200 to 500 ft
< 800m
< 200 ft
Symbols :   Thunderstorms  Fog  Heavy snow  Heavy precipitations  Wind > 20 kt
SIGMETs :     Misc.  Thunderstorms  Icing  Turbulence  Mountain Waves  Volcanic Ashes






- Airport Elevation : 1989 ft
- IATA code : KLV


LKKV - Karlovy Vary

CURRENT METAR :
  • 262300Z 00000KT 0600 R29/0800 FG VV002 00/00 Q1017

EXPIRED METARs :
  • 262200Z 10001KT 0500 R29/0650N FG VV002 00/00 Q1017
  • 262100Z VRB01KT 0500 R29/0550N FG VV002 00/00 Q1017

TAF AMD TAF LKKV
Valid from the 26 at 20:00 until the 28 at 00:00 UTC


262048Z 2620/2800 VRB02KT 0500 FG VV002
PROB30
TEMPO 2620/2622 0800 -FZRA FZFG OVC003
TEMPO 2622/2708 0300 -FZRA FZFG VV001
BECMG 2708/2710 21005KT 1400 BR OVC004
BECMG 2711/2713 3500 -RA BR OVC007
TEMPO 2713/2718 6000 -RA SCT007 BKN013
BECMG 2720/2723 19010KT



MET'MAP, your aeronautical weather chart ! - Copyright ORBIFLY December 2007 - Disclaimer

ORBIFLY MET'MAP TEAM :

Programming & Development : Alexandra Zaïnal
Concept & original design : Baudouin d'Aumeries
Assistance for programming : Marc-Olivier Méhu
Technical & hardware support : Manuel Goepfert

Contact : metmap@orbifly.com




SOURCES & CREDITS :

   NOAA